RYR612 EGSS-EKCH
Flight info
| Callsign | RYR612 |
|---|---|
| Flight time | 1h 20m |
| Altitude | 35000 |
| Route | CLN P44 SOMVA DCT MAVAS DCT ANDIK DCT BEDUM DCT JUIST DCT DOSUR P729 TUDLO |
| Aircraft | B738/M-SDE2E3FGHIRWXY/LB1 |
Departure
| Time | 2026-05-05 09:55 |
|---|---|
| Airport | London Stansted Airport (EGSS) |
Arrival
| Time | 2026-05-05 11:16 |
|---|---|
| Airport | Copenhagen Kastrup Airport (EKCH) |
| Time | Latitude | Longitude | Altitude | Speed | Heading |
|---|---|---|---|---|---|
| 2026-05-05 09:29 | 51.89393 | 0.25946 | 358 ft | 0 kts | 223° |
| 2026-05-05 09:43 | 51.89405 | 0.25963 | 354 ft | 4 kts | 223° |
| 2026-05-05 09:44 | 51.89421 | 0.25987 | 353 ft | 3 kts | 223° |
| 2026-05-05 09:44 | 51.89434 | 0.26016 | 355 ft | 4 kts | 279° |
| 2026-05-05 09:44 | 51.89422 | 0.26047 | 353 ft | 4 kts | 313° |
| 2026-05-05 09:44 | 51.89415 | 0.26059 | 358 ft | 0 kts | 313° |
| 2026-05-05 09:46 | 51.89416 | 0.26058 | 358 ft | 1 kts | 313° |
| 2026-05-05 09:46 | 51.89439 | 0.26018 | 358 ft | 10 kts | 313° |
| 2026-05-05 09:47 | 51.89485 | 0.25938 | 351 ft | 10 kts | 313° |
| 2026-05-05 09:47 | 51.89529 | 0.25853 | 350 ft | 10 kts | 291° |
| 2026-05-05 09:47 | 51.89483 | 0.25737 | 348 ft | 18 kts | 222° |
| 2026-05-05 09:47 | 51.89378 | 0.25583 | 353 ft | 21 kts | 223° |
| 2026-05-05 09:48 | 51.89273 | 0.25425 | 352 ft | 20 kts | 223° |
| 2026-05-05 09:48 | 51.89171 | 0.25272 | 351 ft | 20 kts | 223° |
| 2026-05-05 09:48 | 51.89073 | 0.25123 | 354 ft | 19 kts | 223° |
| 2026-05-05 09:48 | 51.88977 | 0.24980 | 348 ft | 19 kts | 223° |
| 2026-05-05 09:49 | 51.88874 | 0.24824 | 351 ft | 21 kts | 223° |
| 2026-05-05 09:49 | 51.88768 | 0.24666 | 348 ft | 20 kts | 223° |
| 2026-05-05 09:49 | 51.88666 | 0.24514 | 351 ft | 20 kts | 223° |
| 2026-05-05 09:49 | 51.88567 | 0.24365 | 348 ft | 19 kts | 223° |
| 2026-05-05 09:50 | 51.88469 | 0.24216 | 348 ft | 19 kts | 223° |
| 2026-05-05 09:50 | 51.88371 | 0.24072 | 348 ft | 19 kts | 223° |
| 2026-05-05 09:50 | 51.88276 | 0.23926 | 348 ft | 20 kts | 223° |
| 2026-05-05 09:50 | 51.88168 | 0.23764 | 348 ft | 21 kts | 222° |
| 2026-05-05 09:51 | 51.88061 | 0.23605 | 351 ft | 21 kts | 223° |
| 2026-05-05 09:51 | 51.87958 | 0.23449 | 350 ft | 20 kts | 223° |
| 2026-05-05 09:51 | 51.87857 | 0.23298 | 351 ft | 19 kts | 222° |
| 2026-05-05 09:51 | 51.87760 | 0.23153 | 354 ft | 19 kts | 224° |
| 2026-05-05 09:52 | 51.87754 | 0.22997 | 352 ft | 16 kts | 312° |
| 2026-05-05 09:52 | 51.87756 | 0.22849 | 352 ft | 16 kts | 224° |
| 2026-05-05 09:52 | 51.87655 | 0.22698 | 350 ft | 22 kts | 223° |
| 2026-05-05 09:52 | 51.87542 | 0.22529 | 350 ft | 22 kts | 223° |
| 2026-05-05 09:53 | 51.87431 | 0.22362 | 336 ft | 23 kts | 225° |
| 2026-05-05 09:53 | 51.87422 | 0.22172 | 330 ft | 12 kts | 307° |
| 2026-05-05 09:53 | 51.87437 | 0.22144 | 333 ft | 0 kts | 310° |
| 2026-05-05 09:54 | 51.87443 | 0.22132 | 333 ft | 4 kts | 310° |
| 2026-05-05 09:54 | 51.87485 | 0.22056 | 332 ft | 14 kts | 314° |
| 2026-05-05 09:54 | 51.87539 | 0.22036 | 333 ft | 7 kts | 41° |
| 2026-05-05 09:54 | 51.87581 | 0.22099 | 334 ft | 12 kts | 44° |
| 2026-05-05 09:55 | 51.87692 | 0.22268 | 339 ft | 56 kts | 43° |
| 2026-05-05 09:55 | 51.88359 | 0.23265 | 350 ft | 138 kts | 43° |
| 2026-05-05 09:55 | 51.89143 | 0.24450 | 694 ft | 158 kts | 43° |
| 2026-05-05 09:55 | 51.89954 | 0.25701 | 1471 ft | 164 kts | 42° |
| 2026-05-05 09:56 | 51.90811 | 0.26975 | 1949 ft | 177 kts | 44° |
| 2026-05-05 09:56 | 51.91520 | 0.28699 | 2283 ft | 192 kts | 69° |
| 2026-05-05 09:56 | 51.91715 | 0.30928 | 2494 ft | 211 kts | 92° |
| 2026-05-05 09:56 | 51.91496 | 0.32521 | 2692 ft | 221 kts | 108° |
| 2026-05-05 09:57 | 51.90805 | 0.34850 | 2916 ft | 239 kts | 115° |
| 2026-05-05 09:57 | 51.90038 | 0.37282 | 3323 ft | 249 kts | 114° |
| 2026-05-05 09:57 | 51.89261 | 0.39847 | 3917 ft | 254 kts | 114° |
| 2026-05-05 09:57 | 51.88495 | 0.42388 | 3976 ft | 255 kts | 114° |
| 2026-05-05 09:58 | 51.87724 | 0.44985 | 3991 ft | 256 kts | 113° |
| 2026-05-05 09:58 | 51.86957 | 0.47587 | 4004 ft | 257 kts | 113° |
| 2026-05-05 09:58 | 51.86192 | 0.50187 | 4014 ft | 256 kts | 113° |
| 2026-05-05 09:58 | 51.85422 | 0.52811 | 4280 ft | 261 kts | 113° |
| 2026-05-05 09:59 | 51.84642 | 0.55461 | 4987 ft | 260 kts | 113° |
| 2026-05-05 09:59 | 51.83860 | 0.58122 | 5608 ft | 264 kts | 113° |
| 2026-05-05 09:59 | 51.83217 | 0.60924 | 6184 ft | 268 kts | 101° |
| 2026-05-05 09:59 | 51.82965 | 0.63923 | 6751 ft | 272 kts | 90° |
| 2026-05-05 10:00 | 51.83005 | 0.66997 | 7366 ft | 275 kts | 85° |
| 2026-05-05 10:00 | 51.83138 | 0.70102 | 7998 ft | 279 kts | 85° |
| 2026-05-05 10:00 | 51.83295 | 0.73248 | 8644 ft | 283 kts | 84° |
| 2026-05-05 10:00 | 51.83433 | 0.76447 | 9289 ft | 288 kts | 85° |
| 2026-05-05 10:01 | 51.83563 | 0.79699 | 9946 ft | 292 kts | 85° |
| 2026-05-05 10:01 | 51.83686 | 0.83022 | 10352 ft | 305 kts | 86° |
| 2026-05-05 10:01 | 51.83814 | 0.86570 | 10512 ft | 326 kts | 85° |
| 2026-05-05 10:01 | 51.83947 | 0.90314 | 10873 ft | 339 kts | 86° |
| 2026-05-05 10:02 | 51.84082 | 0.94138 | 11498 ft | 342 kts | 86° |
| 2026-05-05 10:02 | 51.84218 | 0.97996 | 12193 ft | 345 kts | 86° |
| 2026-05-05 10:02 | 51.84355 | 1.01875 | 12905 ft | 347 kts | 86° |
| 2026-05-05 10:02 | 51.84492 | 1.05788 | 13614 ft | 350 kts | 86° |
| 2026-05-05 10:03 | 51.84628 | 1.09731 | 14268 ft | 353 kts | 86° |
| 2026-05-05 10:03 | 51.84777 | 1.13718 | 14886 ft | 357 kts | 84° |
| 2026-05-05 10:03 | 51.85424 | 1.17596 | 15480 ft | 361 kts | 66° |
| 2026-05-05 10:03 | 51.86454 | 1.21312 | 16121 ft | 364 kts | 65° |
| 2026-05-05 10:04 | 51.87508 | 1.25070 | 16733 ft | 369 kts | 66° |
| 2026-05-05 10:04 | 51.88567 | 1.28877 | 17326 ft | 374 kts | 66° |
| 2026-05-05 10:04 | 51.89625 | 1.32736 | 17932 ft | 377 kts | 66° |
| 2026-05-05 10:04 | 51.90673 | 1.36597 | 18507 ft | 381 kts | 67° |
| 2026-05-05 10:05 | 51.91738 | 1.40554 | 19000 ft | 386 kts | 67° |
| 2026-05-05 10:05 | 51.92811 | 1.44559 | 19544 ft | 389 kts | 68° |
| 2026-05-05 10:05 | 51.93906 | 1.48658 | 20002 ft | 394 kts | 68° |
| 2026-05-05 10:05 | 51.95000 | 1.52759 | 20511 ft | 398 kts | 68° |
| 2026-05-05 10:06 | 51.96088 | 1.56845 | 21008 ft | 402 kts | 68° |
| 2026-05-05 10:06 | 51.97197 | 1.61017 | 21552 ft | 404 kts | 68° |
| 2026-05-05 10:06 | 51.98311 | 1.65217 | 22063 ft | 407 kts | 68° |
| 2026-05-05 10:06 | 51.99471 | 1.69434 | 22533 ft | 412 kts | 65° |
| 2026-05-05 10:07 | 52.00813 | 1.73558 | 23038 ft | 415 kts | 62° |
| 2026-05-05 10:07 | 52.02225 | 1.77667 | 23511 ft | 418 kts | 62° |
| 2026-05-05 10:07 | 52.03654 | 1.81801 | 23913 ft | 422 kts | 62° |
| 2026-05-05 10:07 | 52.05083 | 1.85999 | 24200 ft | 428 kts | 62° |
| 2026-05-05 10:08 | 52.06519 | 1.90252 | 24565 ft | 431 kts | 62° |
| 2026-05-05 10:08 | 52.07956 | 1.94548 | 24982 ft | 433 kts | 62° |
| 2026-05-05 10:08 | 52.09389 | 1.98870 | 25365 ft | 435 kts | 62° |
| 2026-05-05 10:08 | 52.10822 | 2.03223 | 25730 ft | 439 kts | 62° |
| 2026-05-05 10:09 | 52.12265 | 2.07619 | 26105 ft | 441 kts | 62° |
| 2026-05-05 10:09 | 52.13712 | 2.12037 | 26466 ft | 444 kts | 62° |
| 2026-05-05 10:09 | 52.15169 | 2.16492 | 26820 ft | 447 kts | 62° |
| 2026-05-05 10:09 | 52.16634 | 2.20974 | 27172 ft | 449 kts | 62° |
| 2026-05-05 10:10 | 52.18105 | 2.25478 | 27513 ft | 452 kts | 62° |
| 2026-05-05 10:10 | 52.19583 | 2.30015 | 27853 ft | 455 kts | 62° |
| 2026-05-05 10:10 | 52.21068 | 2.34580 | 28173 ft | 457 kts | 62° |
| 2026-05-05 10:10 | 52.22563 | 2.39184 | 28507 ft | 460 kts | 62° |
| 2026-05-05 10:11 | 52.24061 | 2.43806 | 28826 ft | 462 kts | 62° |
| 2026-05-05 10:11 | 52.25566 | 2.48459 | 29131 ft | 465 kts | 62° |
| 2026-05-05 10:11 | 52.27074 | 2.53129 | 29486 ft | 466 kts | 62° |
| 2026-05-05 10:11 | 52.28586 | 2.57816 | 29834 ft | 467 kts | 62° |
| 2026-05-05 10:12 | 52.30076 | 2.62465 | 30118 ft | 469 kts | 63° |
| 2026-05-05 10:12 | 52.31353 | 2.67387 | 30366 ft | 471 kts | 72° |
| 2026-05-05 10:12 | 52.32277 | 2.72510 | 30738 ft | 469 kts | 75° |
| 2026-05-05 10:12 | 52.33141 | 2.77634 | 31158 ft | 466 kts | 75° |
| 2026-05-05 10:13 | 52.33997 | 2.82735 | 31552 ft | 465 kts | 75° |
| 2026-05-05 10:13 | 52.34863 | 2.87818 | 31891 ft | 464 kts | 75° |
| 2026-05-05 10:13 | 52.35743 | 2.92895 | 32208 ft | 464 kts | 75° |
| 2026-05-05 10:13 | 52.36629 | 2.97963 | 32551 ft | 462 kts | 75° |
| 2026-05-05 10:14 | 52.37515 | 3.03017 | 32793 ft | 464 kts | 75° |
| 2026-05-05 10:14 | 52.38407 | 3.08106 | 32999 ft | 466 kts | 75° |
| 2026-05-05 10:14 | 52.39295 | 3.13204 | 33325 ft | 465 kts | 75° |
| 2026-05-05 10:14 | 52.40175 | 3.18275 | 33713 ft | 462 kts | 76° |
| 2026-05-05 10:15 | 52.41044 | 3.23329 | 34049 ft | 461 kts | 76° |
| 2026-05-05 10:15 | 52.41906 | 3.28377 | 34262 ft | 461 kts | 76° |
| 2026-05-05 10:15 | 52.42767 | 3.33443 | 34460 ft | 462 kts | 76° |
| 2026-05-05 10:15 | 52.43627 | 3.38515 | 34689 ft | 461 kts | 76° |
| 2026-05-05 10:16 | 52.44483 | 3.43576 | 34939 ft | 460 kts | 76° |
| 2026-05-05 10:16 | 52.45338 | 3.48642 | 34964 ft | 464 kts | 76° |
| 2026-05-05 10:16 | 52.47054 | 3.58855 | 34982 ft | 463 kts | 76° |
| 2026-05-05 10:17 | 52.48751 | 3.69000 | 34973 ft | 460 kts | 76° |
| 2026-05-05 10:17 | 52.50427 | 3.79083 | 34967 ft | 456 kts | 76° |
| 2026-05-05 10:18 | 52.52084 | 3.89113 | 34971 ft | 455 kts | 76° |
| 2026-05-05 10:18 | 52.53731 | 3.99141 | 34960 ft | 454 kts | 76° |
| 2026-05-05 10:19 | 52.55369 | 4.09177 | 34967 ft | 456 kts | 77° |
| 2026-05-05 10:19 | 52.57005 | 4.19259 | 34973 ft | 458 kts | 77° |
| 2026-05-05 10:20 | 52.58643 | 4.29412 | 34962 ft | 461 kts | 77° |
| 2026-05-05 10:20 | 52.60283 | 4.39638 | 34969 ft | 463 kts | 77° |
| 2026-05-05 10:21 | 52.61920 | 4.49909 | 34962 ft | 465 kts | 77° |
| 2026-05-05 10:21 | 52.63556 | 4.60240 | 34959 ft | 467 kts | 77° |
| 2026-05-05 10:22 | 52.65185 | 4.70586 | 34953 ft | 467 kts | 77° |
| 2026-05-05 10:22 | 52.66803 | 4.80930 | 34969 ft | 466 kts | 77° |
| 2026-05-05 10:23 | 52.68410 | 4.91269 | 34957 ft | 465 kts | 77° |
| 2026-05-05 10:23 | 52.70004 | 5.01588 | 34958 ft | 464 kts | 77° |
| 2026-05-05 10:24 | 52.71585 | 5.11888 | 34953 ft | 463 kts | 77° |
| 2026-05-05 10:24 | 52.73166 | 5.22110 | 34960 ft | 463 kts | 74° |
| 2026-05-05 10:25 | 52.75930 | 5.31673 | 34957 ft | 464 kts | 54° |
| 2026-05-05 10:25 | 52.79885 | 5.40080 | 34962 ft | 464 kts | 51° |
| 2026-05-05 10:26 | 52.83916 | 5.48419 | 34962 ft | 464 kts | 51° |
| 2026-05-05 10:26 | 52.87908 | 5.56822 | 34965 ft | 465 kts | 52° |
| 2026-05-05 10:27 | 52.91887 | 5.65309 | 34962 ft | 466 kts | 52° |
| 2026-05-05 10:27 | 52.95860 | 5.73835 | 34965 ft | 468 kts | 52° |
| 2026-05-05 10:28 | 52.99836 | 5.82394 | 34964 ft | 469 kts | 52° |
| 2026-05-05 10:28 | 53.03814 | 5.90984 | 34963 ft | 470 kts | 52° |
| 2026-05-05 10:29 | 53.07792 | 5.99601 | 34962 ft | 470 kts | 52° |
| 2026-05-05 10:29 | 53.11771 | 6.08248 | 34985 ft | 470 kts | 52° |
| 2026-05-05 10:30 | 53.15736 | 6.16897 | 34945 ft | 470 kts | 52° |
| 2026-05-05 10:30 | 53.19686 | 6.25540 | 34961 ft | 468 kts | 52° |
| 2026-05-05 10:31 | 53.23623 | 6.34186 | 34964 ft | 467 kts | 52° |
| 2026-05-05 10:31 | 53.27544 | 6.42829 | 34958 ft | 466 kts | 52° |
| 2026-05-05 10:32 | 53.31453 | 6.51469 | 34967 ft | 466 kts | 52° |
| 2026-05-05 10:32 | 53.35430 | 6.60013 | 34958 ft | 465 kts | 45° |
| 2026-05-05 10:33 | 53.40146 | 6.67360 | 34966 ft | 463 kts | 40° |
| 2026-05-05 10:33 | 53.44971 | 6.74540 | 34952 ft | 464 kts | 40° |
| 2026-05-05 10:34 | 53.49757 | 6.81858 | 34974 ft | 466 kts | 41° |
| 2026-05-05 10:34 | 53.54546 | 6.89275 | 34995 ft | 469 kts | 41° |
| 2026-05-05 10:35 | 53.59273 | 6.96772 | 34968 ft | 471 kts | 43° |
| 2026-05-05 10:35 | 53.63901 | 7.04593 | 34961 ft | 471 kts | 44° |
| 2026-05-05 10:36 | 53.68492 | 7.12433 | 34960 ft | 469 kts | 44° |
| 2026-05-05 10:36 | 53.73075 | 7.20225 | 34963 ft | 466 kts | 44° |
| 2026-05-05 10:37 | 53.77643 | 7.27980 | 34978 ft | 464 kts | 44° |
| 2026-05-05 10:37 | 53.82182 | 7.35700 | 34967 ft | 462 kts | 44° |
| 2026-05-05 10:38 | 53.86695 | 7.43401 | 34966 ft | 460 kts | 44° |
| 2026-05-05 10:38 | 53.91187 | 7.51093 | 34978 ft | 458 kts | 44° |
| 2026-05-05 10:39 | 53.95665 | 7.58787 | 34975 ft | 458 kts | 44° |
| 2026-05-05 10:39 | 54.00135 | 7.66493 | 34977 ft | 458 kts | 44° |
| 2026-05-05 10:40 | 54.04607 | 7.74226 | 34988 ft | 459 kts | 44° |
| 2026-05-05 10:40 | 54.09080 | 7.81986 | 34982 ft | 459 kts | 44° |
| 2026-05-05 10:41 | 54.13551 | 7.89769 | 34978 ft | 460 kts | 44° |
| 2026-05-05 10:41 | 54.18019 | 7.97573 | 34977 ft | 460 kts | 44° |
| 2026-05-05 10:42 | 54.24728 | 8.09338 | 34990 ft | 461 kts | 44° |
| 2026-05-05 10:43 | 54.28443 | 8.15878 | 34979 ft | 461 kts | 44° |
| 2026-05-05 10:43 | 54.32908 | 8.23762 | 34971 ft | 461 kts | 44° |
| 2026-05-05 10:44 | 54.37365 | 8.31659 | 34976 ft | 461 kts | 44° |
| 2026-05-05 10:44 | 54.41815 | 8.39569 | 34969 ft | 460 kts | 44° |
| 2026-05-05 10:45 | 54.46253 | 8.47485 | 34985 ft | 460 kts | 45° |
| 2026-05-05 10:45 | 54.50679 | 8.55406 | 34963 ft | 458 kts | 45° |
| 2026-05-05 10:46 | 54.55085 | 8.63316 | 34945 ft | 457 kts | 45° |
| 2026-05-05 10:46 | 54.59471 | 8.71219 | 34953 ft | 455 kts | 45° |
| 2026-05-05 10:47 | 54.63840 | 8.79115 | 34966 ft | 455 kts | 45° |
| 2026-05-05 10:47 | 54.68142 | 8.86920 | 34851 ft | 441 kts | 45° |
| 2026-05-05 10:47 | 54.70245 | 8.90744 | 34543 ft | 435 kts | 45° |
| 2026-05-05 10:48 | 54.72284 | 8.94457 | 34215 ft | 430 kts | 45° |
| 2026-05-05 10:48 | 54.74363 | 8.98248 | 33849 ft | 426 kts | 45° |
| 2026-05-05 10:48 | 54.76391 | 9.01953 | 33445 ft | 423 kts | 45° |
| 2026-05-05 10:48 | 54.78408 | 9.05642 | 33069 ft | 419 kts | 45° |
| 2026-05-05 10:49 | 54.80399 | 9.09290 | 32699 ft | 415 kts | 45° |
| 2026-05-05 10:49 | 54.82372 | 9.12908 | 32348 ft | 411 kts | 45° |
| 2026-05-05 10:49 | 54.84329 | 9.16504 | 31982 ft | 408 kts | 45° |
| 2026-05-05 10:49 | 54.86244 | 9.20036 | 31632 ft | 405 kts | 45° |
| 2026-05-05 10:50 | 54.88121 | 9.23642 | 31350 ft | 401 kts | 47° |
| 2026-05-05 10:50 | 54.89959 | 9.27274 | 30992 ft | 399 kts | 47° |
| 2026-05-05 10:50 | 54.91772 | 9.30887 | 30653 ft | 396 kts | 47° |
| 2026-05-05 10:50 | 54.93579 | 9.34491 | 30310 ft | 394 kts | 47° |
| 2026-05-05 10:51 | 54.95383 | 9.38072 | 29963 ft | 392 kts | 47° |
| 2026-05-05 10:51 | 54.97172 | 9.41626 | 29573 ft | 390 kts | 47° |
| 2026-05-05 10:51 | 54.98949 | 9.45159 | 29235 ft | 386 kts | 47° |
| 2026-05-05 10:51 | 55.00709 | 9.48657 | 28882 ft | 382 kts | 47° |
| 2026-05-05 10:52 | 55.02453 | 9.52126 | 28546 ft | 379 kts | 47° |
| 2026-05-05 10:52 | 55.04182 | 9.55571 | 28199 ft | 376 kts | 47° |
| 2026-05-05 10:52 | 55.05895 | 9.58984 | 27866 ft | 372 kts | 47° |
| 2026-05-05 10:52 | 55.07589 | 9.62369 | 27542 ft | 369 kts | 47° |
| 2026-05-05 10:53 | 55.09267 | 9.65746 | 27201 ft | 368 kts | 50° |
| 2026-05-05 10:53 | 55.10685 | 9.69458 | 26878 ft | 367 kts | 62° |
| 2026-05-05 10:53 | 55.11680 | 9.73550 | 26568 ft | 367 kts | 71° |
| 2026-05-05 10:53 | 55.12462 | 9.77848 | 26264 ft | 377 kts | 72° |
| 2026-05-05 10:54 | 55.13233 | 9.82283 | 25941 ft | 386 kts | 73° |
| 2026-05-05 10:54 | 55.14007 | 9.86771 | 25574 ft | 385 kts | 73° |
| 2026-05-05 10:54 | 55.14781 | 9.91236 | 25222 ft | 383 kts | 73° |
| 2026-05-05 10:54 | 55.15559 | 9.95685 | 24873 ft | 381 kts | 73° |
| 2026-05-05 10:55 | 55.16335 | 10.00094 | 24538 ft | 379 kts | 73° |
| 2026-05-05 10:55 | 55.17110 | 10.04479 | 24208 ft | 377 kts | 73° |
| 2026-05-05 10:55 | 55.17880 | 10.08846 | 23882 ft | 375 kts | 73° |
| 2026-05-05 10:55 | 55.18645 | 10.13188 | 23556 ft | 373 kts | 73° |
| 2026-05-05 10:56 | 55.19405 | 10.17516 | 23182 ft | 371 kts | 73° |
| 2026-05-05 10:56 | 55.20162 | 10.21830 | 22824 ft | 369 kts | 73° |
| 2026-05-05 10:56 | 55.20908 | 10.26098 | 22503 ft | 366 kts | 73° |
| 2026-05-05 10:56 | 55.21649 | 10.30340 | 22180 ft | 363 kts | 73° |
| 2026-05-05 10:57 | 55.22382 | 10.34550 | 21851 ft | 360 kts | 73° |
| 2026-05-05 10:57 | 55.23108 | 10.38731 | 21537 ft | 358 kts | 73° |
| 2026-05-05 10:57 | 55.23819 | 10.42827 | 21237 ft | 355 kts | 73° |
| 2026-05-05 10:57 | 55.24542 | 10.47012 | 20914 ft | 353 kts | 73° |
| 2026-05-05 10:58 | 55.25241 | 10.51060 | 20606 ft | 351 kts | 73° |
| 2026-05-05 10:58 | 55.25945 | 10.55141 | 20297 ft | 349 kts | 73° |
| 2026-05-05 10:58 | 55.26643 | 10.59205 | 19988 ft | 347 kts | 73° |
| 2026-05-05 10:58 | 55.27335 | 10.63245 | 19687 ft | 345 kts | 73° |
| 2026-05-05 10:59 | 55.28024 | 10.67267 | 19392 ft | 343 kts | 73° |
| 2026-05-05 10:59 | 55.28709 | 10.71264 | 19098 ft | 341 kts | 73° |
| 2026-05-05 10:59 | 55.29392 | 10.75248 | 18801 ft | 340 kts | 73° |
| 2026-05-05 10:59 | 55.30069 | 10.79213 | 18503 ft | 339 kts | 73° |
| 2026-05-05 11:00 | 55.30743 | 10.83162 | 18219 ft | 338 kts | 73° |
| 2026-05-05 11:00 | 55.31416 | 10.87115 | 17858 ft | 338 kts | 73° |
| 2026-05-05 11:00 | 55.32086 | 10.91060 | 17528 ft | 336 kts | 73° |
| 2026-05-05 11:00 | 55.32750 | 10.94982 | 17217 ft | 334 kts | 73° |
| 2026-05-05 11:01 | 55.33407 | 10.98885 | 16917 ft | 332 kts | 73° |
| 2026-05-05 11:01 | 55.34054 | 11.02763 | 16609 ft | 331 kts | 73° |
| 2026-05-05 11:01 | 55.34696 | 11.06630 | 16323 ft | 329 kts | 73° |
| 2026-05-05 11:01 | 55.35333 | 11.10474 | 16034 ft | 327 kts | 73° |
| 2026-05-05 11:02 | 55.35966 | 11.14301 | 15739 ft | 325 kts | 73° |
| 2026-05-05 11:02 | 55.36596 | 11.18112 | 15452 ft | 324 kts | 73° |
| 2026-05-05 11:02 | 55.37222 | 11.21910 | 15164 ft | 323 kts | 73° |
| 2026-05-05 11:02 | 55.37845 | 11.25696 | 14877 ft | 322 kts | 73° |
| 2026-05-05 11:03 | 55.38465 | 11.29474 | 14593 ft | 321 kts | 73° |
| 2026-05-05 11:03 | 55.39081 | 11.33232 | 14311 ft | 320 kts | 73° |
| 2026-05-05 11:03 | 55.39695 | 11.36988 | 14016 ft | 319 kts | 73° |
| 2026-05-05 11:03 | 55.40305 | 11.40726 | 13723 ft | 318 kts | 73° |
| 2026-05-05 11:04 | 55.40915 | 11.44469 | 13396 ft | 318 kts | 73° |
| 2026-05-05 11:04 | 55.41521 | 11.48200 | 13090 ft | 316 kts | 73° |
| 2026-05-05 11:04 | 55.42123 | 11.51912 | 12801 ft | 315 kts | 73° |
| 2026-05-05 11:04 | 55.42721 | 11.55606 | 12508 ft | 313 kts | 73° |
| 2026-05-05 11:05 | 55.43314 | 11.59281 | 12221 ft | 311 kts | 73° |
| 2026-05-05 11:05 | 55.43919 | 11.62877 | 11936 ft | 310 kts | 68° |
| 2026-05-05 11:05 | 55.44970 | 11.66156 | 11673 ft | 308 kts | 52° |
| 2026-05-05 11:05 | 55.46212 | 11.69237 | 11418 ft | 311 kts | 52° |
| 2026-05-05 11:06 | 55.47471 | 11.72365 | 11151 ft | 314 kts | 52° |
| 2026-05-05 11:06 | 55.48726 | 11.75531 | 10872 ft | 315 kts | 53° |
| 2026-05-05 11:06 | 55.49965 | 11.78700 | 10597 ft | 314 kts | 53° |
| 2026-05-05 11:06 | 55.51194 | 11.81873 | 10324 ft | 312 kts | 53° |
| 2026-05-05 11:07 | 55.52410 | 11.85026 | 10052 ft | 310 kts | 53° |
| 2026-05-05 11:07 | 55.53614 | 11.88156 | 9780 ft | 306 kts | 54° |
| 2026-05-05 11:07 | 55.54797 | 11.91250 | 9459 ft | 301 kts | 54° |
| 2026-05-05 11:07 | 55.55961 | 11.94304 | 9142 ft | 298 kts | 54° |
| 2026-05-05 11:08 | 55.57114 | 11.97329 | 8652 ft | 297 kts | 54° |
| 2026-05-05 11:08 | 55.58264 | 12.00353 | 8163 ft | 296 kts | 55° |
| 2026-05-05 11:08 | 55.59064 | 12.03674 | 7686 ft | 295 kts | 80° |
| 2026-05-05 11:08 | 55.58974 | 12.07244 | 7267 ft | 291 kts | 107° |
| 2026-05-05 11:09 | 55.58111 | 12.10431 | 6846 ft | 286 kts | 122° |
| 2026-05-05 11:09 | 55.57044 | 12.13383 | 6393 ft | 284 kts | 124° |
| 2026-05-05 11:09 | 55.55953 | 12.16274 | 5927 ft | 282 kts | 124° |
| 2026-05-05 11:09 | 55.54855 | 12.19116 | 5484 ft | 278 kts | 124° |
| 2026-05-05 11:10 | 55.53757 | 12.21917 | 5014 ft | 277 kts | 124° |
| 2026-05-05 11:10 | 55.52653 | 12.24680 | 4594 ft | 274 kts | 124° |
| 2026-05-05 11:10 | 55.51551 | 12.27394 | 4158 ft | 270 kts | 125° |
| 2026-05-05 11:10 | 55.50462 | 12.30070 | 3728 ft | 267 kts | 124° |
| 2026-05-05 11:11 | 55.49377 | 12.32720 | 3251 ft | 267 kts | 125° |
| 2026-05-05 11:11 | 55.48300 | 12.35328 | 3021 ft | 256 kts | 124° |
| 2026-05-05 11:11 | 55.47335 | 12.37815 | 2981 ft | 234 kts | 114° |
| 2026-05-05 11:11 | 55.47053 | 12.40426 | 2965 ft | 206 kts | 79° |
| 2026-05-05 11:12 | 55.47507 | 12.42641 | 2943 ft | 187 kts | 45° |
| 2026-05-05 11:12 | 55.48552 | 12.43863 | 2866 ft | 181 kts | 27° |
| 2026-05-05 11:12 | 55.49527 | 12.45334 | 2616 ft | 185 kts | 43° |
| 2026-05-05 11:12 | 55.50472 | 12.46836 | 2364 ft | 178 kts | 37° |
| 2026-05-05 11:13 | 55.51388 | 12.48195 | 2120 ft | 166 kts | 38° |
| 2026-05-05 11:13 | 55.52214 | 12.49465 | 1924 ft | 155 kts | 38° |
| 2026-05-05 11:13 | 55.53013 | 12.50704 | 1708 ft | 151 kts | 39° |
| 2026-05-05 11:13 | 55.53792 | 12.51916 | 1487 ft | 148 kts | 38° |
| 2026-05-05 11:14 | 55.54569 | 12.53121 | 1286 ft | 150 kts | 38° |
| 2026-05-05 11:14 | 55.55350 | 12.54335 | 1088 ft | 150 kts | 39° |
| 2026-05-05 11:14 | 55.56138 | 12.55543 | 939 ft | 149 kts | 38° |
| 2026-05-05 11:14 | 55.56926 | 12.56787 | 698 ft | 152 kts | 40° |
| 2026-05-05 11:15 | 55.57698 | 12.57996 | 437 ft | 145 kts | 39° |
| 2026-05-05 11:15 | 55.58454 | 12.59151 | 273 ft | 146 kts | 39° |
| 2026-05-05 11:15 | 55.59225 | 12.60351 | 61 ft | 149 kts | 40° |
| 2026-05-05 11:15 | 55.59955 | 12.61478 | 27 ft | 126 kts | 41° |
| 2026-05-05 11:16 | 55.60521 | 12.62356 | 27 ft | 91 kts | 41° |
| 2026-05-05 11:16 | 55.60907 | 12.62952 | 24 ft | 56 kts | 41° |
| 2026-05-05 11:16 | 55.61162 | 12.63348 | 27 ft | 45 kts | 41° |
| 2026-05-05 11:16 | 55.61384 | 12.63694 | 24 ft | 40 kts | 41° |
| 2026-05-05 11:17 | 55.61583 | 12.63999 | 26 ft | 35 kts | 43° |
| 2026-05-05 11:17 | 55.61725 | 12.64089 | 25 ft | 20 kts | 353° |
| 2026-05-05 11:17 | 55.61769 | 12.64080 | 27 ft | 5 kts | 353° |
| 2026-05-05 11:17 | 55.61802 | 12.64075 | 23 ft | 5 kts | 355° |
| 2026-05-05 11:18 | 55.61840 | 12.64071 | 23 ft | 6 kts | 357° |
| 2026-05-05 11:18 | 55.61916 | 12.64105 | 23 ft | 13 kts | 24° |
| 2026-05-05 11:18 | 55.61993 | 12.64171 | 23 ft | 12 kts | 26° |
| 2026-05-05 11:18 | 55.62072 | 12.64238 | 25 ft | 13 kts | 26° |
| 2026-05-05 11:19 | 55.62155 | 12.64309 | 22 ft | 13 kts | 26° |
| 2026-05-05 11:19 | 55.62242 | 12.64393 | 21 ft | 16 kts | 45° |
| 2026-05-05 11:19 | 55.62292 | 12.64562 | 25 ft | 15 kts | 68° |
| 2026-05-05 11:19 | 55.62327 | 12.64708 | 23 ft | 7 kts | 66° |
| 2026-05-05 11:20 | 55.62355 | 12.64824 | 23 ft | 14 kts | 77° |
| 2026-05-05 11:20 | 55.62308 | 12.64986 | 23 ft | 16 kts | 122° |
| 2026-05-05 11:20 | 55.62283 | 12.65159 | 23 ft | 15 kts | 60° |
| 2026-05-05 11:20 | 55.62379 | 12.65204 | 23 ft | 15 kts | 359° |
| 2026-05-05 11:21 | 55.62441 | 12.65313 | 23 ft | 15 kts | 87° |
| 2026-05-05 11:21 | 55.62442 | 12.65479 | 23 ft | 11 kts | 87° |
| 2026-05-05 11:21 | 55.62487 | 12.65549 | 24 ft | 5 kts | 21° |
| 2026-05-05 11:21 | 55.62511 | 12.65566 | 23 ft | 1 kts | 22° |
| 2026-05-05 11:22 | 55.62518 | 12.65571 | 23 ft | 1 kts | 23° |
| 2026-05-05 11:22 | 55.62519 | 12.65572 | 23 ft | 0 kts | 23° |